This is the latest recevied weather packets stored in our database for station/object HB9Y1. If no packets are shown the sender has not sent any weather packets the latest 10 day(s).
| Time | Temp. | Humidity | Pressure | Rain* | Wind** | Luminosity | Snow |
|---|---|---|---|---|---|---|---|
| 1777887207 | 9.44° C | 60% | 1015.6 hPa | 0 mm | - | 333 W/m² | - |
| 1777885413 | 9.44° C | 60% | 1015.3 hPa | 0 mm | - | 327 W/m² | - |
| 1777878213 | 7.78° C | 61% | 1015.1 hPa | 0 mm | - | 202 W/m² | - |
| 1777874613 | 7.78° C | 57% | 1014.5 hPa | 0 mm | - | 90 W/m² | - |
| 1777868004 | 6.67° C | 59% | 1014.5 hPa | 0 mm | - | 1 W/m² | - |
| 1777865604 | 6.67° C | 55% | 1014.5 hPa | 0 mm | - | 0 W/m² | - |
| 1777862024 | 6.67° C | 55% | 1015.1 hPa | 0 mm | - | 0 W/m² | - |
| 1777858404 | 7.22° C | 54% | 1015.6 hPa | 0 mm | - | 0 W/m² | - |
| 1777857224 | 7.22° C | 54% | 1015.7 hPa | 0 mm | - | 0 W/m² | - |
| 1777856004 | 6.67° C | 53% | 1015.7 hPa | 0 mm | - | 0 W/m² | - |
| 1777848804 | 7.78° C | 56% | 1016.8 hPa | 0 mm | - | 0 W/m² | - |
| 1777847012 | 7.78° C | 57% | 1016.5 hPa | 0 mm | - | 0 W/m² | - |
| 1777846424 | 7.78° C | 56% | 1016.7 hPa | 0 mm | - | 0 W/m² | - |
| 1777844652 | 7.78° C | 56% | 1016.7 hPa | 0 mm | - | 0 W/m² | - |
| 1777843412 | 7.78° C | 59% | 1016.8 hPa | 0 mm | - | 0 W/m² | - |
| 1777840398 | 8.33° C | 60% | 1016.9 hPa | 0 mm | - | 0 W/m² | - |
| 1777839812 | 8.33° C | 61% | 1016.5 hPa | 0 mm | - | 0 W/m² | - |
| 1777831412 | 8.89° C | 66% | 1016.1 hPa | 0 mm | - | 19 W/m² | - |
| 1777830798 | 8.89° C | 66% | 1015.8 hPa | 0 mm | - | 24 W/m² | - |
| 1777829604 | 9.44° C | 65% | 1016.1 hPa | 0 mm | - | 45 W/m² | - |
| 1777828404 | 9.44° C | 65% | 1015.7 hPa | 0 mm | - | 73 W/m² | - |
| 1777826612 | 9.44° C | 63% | 1015.9 hPa | 0 mm | - | 105 W/m² | - |
| 1777825998 | 9.44° C | 63% | 1016.1 hPa | 0 mm | - | 117 W/m² | - |
| 1777824226 | 9.44° C | 64% | 1016.1 hPa | 0 mm | - | 72 W/m² | - |
| 1777820612 | 8.89° C | 69% | 1016.5 hPa | 0 mm | - | 47 W/m² | - |
* Rain latest hour (hover to see other rain measurements)
** Current wind speed in m/s (hover to see current wind gust speed)